Time;durP1;ratioP1;P1;durP2;ratioP2;P2;SDS_P1;SDS_P2;PMS_P1;PMS_P2;Temp;Humidity;BMP_temperature;BMP_pressure;BME280_temperature;BME280_humidity;BME280_pressure;Samples;Min_cycle;Max_cycle;Signal;HPM_P1;HPM_P2
2023/04/02 00:00:34;;;;;;;7.70;7.13;;;;;;;;;;5026901;28;20454;-80
2023/04/02 00:03:07;;;;;;;8.20;7.63;;;;;;;;;;5038663;28;20404;-81
2023/04/02 00:05:48;;;;;;;6.63;6.23;;;;;;;;;;5047738;28;20474;-85
2023/04/02 00:08:21;;;;;;;8.18;7.65;;;;;;;;;;5020610;28;20451;-84
2023/04/02 00:10:51;;;;;;;7.77;7.30;;;;;;;;;;5024245;28;20196;-83
2023/04/02 00:13:17;;;;;;;7.60;7.13;;;;;;;;;;5033340;28;20469;-82
2023/04/02 00:15:45;;;;;;;6.97;6.63;;;;;;;;;;5030373;28;20227;-83
2023/04/02 00:18:15;;;;;;;6.90;6.50;;;;;;;;;;5016800;28;20925;-83
2023/04/02 00:20:43;;;;;;;7.57;6.87;;;;;;;;;;5011406;28;20442;-83
2023/04/02 00:23:12;;;;;;;6.63;6.23;;;;;;;;;;5026950;28;20878;-83
2023/04/02 00:25:41;;;;;;;6.43;6.13;;;;;;;;;;5025121;28;20773;-83
2023/04/02 00:28:13;;;;;;;6.43;6.10;;;;;;;;;;5035308;28;20991;-84
2023/04/02 00:30:45;;;;;;;7.87;7.47;;;;;;;;;;5024959;28;20794;-83
2023/04/02 00:33:15;;;;;;;7.95;7.45;;;;;;;;;;5024398;28;20529;-83
2023/04/02 00:35:41;;;;;;;7.77;7.27;;;;;;;;;;5021475;28;20553;-84
2023/04/02 00:38:13;;;;;;;7.40;7.00;;;;;;;;;;5034559;28;20395;-84
2023/04/02 00:40:39;;;;;;;8.83;8.23;;;;;;;;;;5017698;28;20458;-84
2023/04/02 00:43:05;;;;;;;7.32;6.85;;;;;;;;;;5014375;28;20396;-84
2023/04/02 00:45:34;;;;;;;7.90;7.40;;;;;;;;;;5022535;28;20188;-83
2023/04/02 00:48:14;;;;;;;9.48;8.77;;;;;;;;;;5035431;28;20210;-83
2023/04/02 00:50:41;;;;;;;8.00;7.47;;;;;;;;;;5022819;28;20209;-83
2023/04/02 00:53:11;;;;;;;6.88;6.43;;;;;;;;;;5041177;28;20203;-83
2023/04/02 00:55:38;;;;;;;9.50;8.70;;;;;;;;;;5015815;28;20216;-82
2023/04/02 00:58:12;;;;;;;6.80;6.30;;;;;;;;;;5038796;28;20418;-83
2023/04/02 01:00:39;;;;;;;8.13;7.63;;;;;;;;;;5020460;28;20251;-83
2023/04/02 01:03:17;;;;;;;8.75;8.10;;;;;;;;;;5038394;28;20407;-83
2023/04/02 01:05:49;;;;;;;10.88;10.13;;;;;;;;;;5028589;28;20199;-83
2023/04/02 01:08:30;;;;;;;10.10;9.10;;;;;;;;;;5039883;28;20164;-83
2023/04/02 01:11:25;;;;;;;8.07;7.53;;;;;;;;;;5020489;28;20748;-84
2023/04/02 01:14:01;;;;;;;8.30;7.70;;;;;;;;;;5036414;28;20738;-83
2023/04/02 01:16:31;;;;;;;9.27;8.63;;;;;;;;;;5013439;28;20532;-84
2023/04/02 01:19:06;;;;;;;7.63;7.03;;;;;;;;;;5033345;28;20739;-84
2023/04/02 01:21:41;;;;;;;5.75;5.45;;;;;;;;;;5017344;28;20670;-84
2023/04/02 01:24:11;;;;;;;8.17;7.57;;;;;;;;;;5000880;28;20226;-83
2023/04/02 01:26:40;;;;;;;8.38;7.82;;;;;;;;;;5027735;28;20496;-83
2023/04/02 01:29:15;;;;;;;8.10;7.50;;;;;;;;;;5031369;28;20202;-83
2023/04/02 01:31:41;;;;;;;7.20;6.90;;;;;;;;;;5031105;28;20444;-83
2023/04/02 01:34:09;;;;;;;6.90;6.40;;;;;;;;;;5024140;28;20434;-84
2023/04/02 01:36:39;;;;;;;7.50;7.03;;;;;;;;;;5009657;28;20442;-84
2023/04/02 01:39:11;;;;;;;6.27;5.97;;;;;;;;;;5039551;28;20439;-84
2023/04/02 01:41:56;;;;;;;7.00;6.60;;;;;;;;;;5030605;28;20460;-84
2023/04/02 01:44:29;;;;;;;8.10;7.65;;;;;;;;;;5040390;28;20482;-83
2023/04/02 01:46:57;;;;;;;4.68;4.43;;;;;;;;;;5016825;28;20196;-83
2023/04/02 01:49:24;;;;;;;7.03;6.53;;;;;;;;;;5036140;28;20311;-83
2023/04/02 01:51:52;;;;;;;8.10;7.50;;;;;;;;;;5031892;28;20200;-85
2023/04/02 01:54:19;;;;;;;6.82;6.53;;;;;;;;;;5026290;28;20580;-83
2023/04/02 01:56:46;;;;;;;7.63;7.23;;;;;;;;;;5021078;28;20184;-83
2023/04/02 01:59:13;;;;;;;6.90;6.50;;;;;;;;;;5008571;28;20439;-84
2023/04/02 02:01:43;;;;;;;6.13;5.82;;;;;;;;;;5035637;28;20184;-84
2023/04/02 02:04:12;;;;;;;5.87;5.67;;;;;;;;;;5035610;28;20223;-83
2023/04/02 02:06:39;;;;;;;5.35;5.10;;;;;;;;;;5042816;28;20674;-83
2023/04/02 02:09:06;;;;;;;6.57;6.20;;;;;;;;;;5040177;28;20192;-83
2023/04/02 02:11:35;;;;;;;6.47;6.17;;;;;;;;;;5028193;28;20184;-84
2023/04/02 02:14:05;;;;;;;6.13;5.82;;;;;;;;;;5029929;28;20442;-84
2023/04/02 02:16:32;;;;;;;4.80;4.60;;;;;;;;;;5035111;28;20315;-84
2023/04/02 02:19:03;;;;;;;6.47;5.90;;;;;;;;;;5047524;28;20210;-84
2023/04/02 02:21:41;;;;;;;6.40;6.10;;;;;;;;;;5035851;28;20522;-84
2023/04/02 02:24:14;;;;;;;6.20;5.90;;;;;;;;;;5018223;28;20469;-84
2023/04/02 02:26:41;;;;;;;6.05;5.65;;;;;;;;;;5024553;28;20181;-85
2023/04/02 02:29:11;;;;;;;5.63;5.43;;;;;;;;;;5017650;28;20192;-83
2023/04/02 02:31:40;;;;;;;6.80;6.40;;;;;;;;;;5027250;28;20187;-84
2023/04/02 02:34:12;;;;;;;7.95;7.45;;;;;;;;;;5043084;28;20191;-84
2023/04/02 02:36:47;;;;;;;5.90;5.60;;;;;;;;;;5025406;28;20169;-84
2023/04/02 02:39:26;;;;;;;7.07;6.68;;;;;;;;;;5037660;28;20192;-85
2023/04/02 02:41:57;;;;;;;6.90;6.50;;;;;;;;;;5027557;28;20187;-86
2023/04/02 02:44:24;;;;;;;7.97;7.38;;;;;;;;;;5032487;28;20470;-86
2023/04/02 02:46:53;;;;;;;8.07;7.47;;;;;;;;;;5047526;28;20219;-85
2023/04/02 02:49:25;;;;;;;7.90;7.30;;;;;;;;;;5021260;28;20477;-85
2023/04/02 02:52:00;;;;;;;8.75;7.95;;;;;;;;;;5035066;28;20441;-86
2023/04/02 02:54:27;;;;;;;8.50;7.80;;;;;;;;;;5038803;28;20195;-85
2023/04/02 02:56:56;;;;;;;9.27;8.70;;;;;;;;;;5025037;28;20511;-85
2023/04/02 02:59:22;;;;;;;8.20;7.60;;;;;;;;;;5039499;28;20196;-86
2023/04/02 03:01:49;;;;;;;9.07;8.48;;;;;;;;;;5045340;28;20192;-85
2023/04/02 03:04:21;;;;;;;7.40;6.97;;;;;;;;;;5032453;28;20251;-85
2023/04/02 03:06:49;;;;;;;8.53;7.87;;;;;;;;;;5028336;28;20485;-85
2023/04/02 03:09:18;;;;;;;9.07;8.47;;;;;;;;;;5037430;28;20426;-84
2023/04/02 03:11:57;;;;;;;9.27;8.47;;;;;;;;;;5027731;28;20434;-85
2023/04/02 03:14:23;;;;;;;9.70;8.90;;;;;;;;;;5049083;28;20417;-86
2023/04/02 03:16:52;;;;;;;7.82;7.28;;;;;;;;;;5047654;28;20457;-86
2023/04/02 03:19:29;;;;;;;8.20;7.70;;;;;;;;;;5046869;28;20231;-84
2023/04/02 03:22:01;;;;;;;7.80;7.30;;;;;;;;;;5050188;28;20475;-84
2023/04/02 03:24:34;;;;;;;7.00;6.40;;;;;;;;;;5043068;28;20471;-86
2023/04/02 03:27:04;;;;;;;7.27;6.87;;;;;;;;;;5029973;28;20410;-85
2023/04/02 03:29:32;;;;;;;7.28;6.88;;;;;;;;;;5048966;28;20419;-85
2023/04/02 03:32:16;;;;;;;7.70;7.10;;;;;;;;;;5044559;28;20188;-86
2023/04/02 03:34:48;;;;;;;8.30;7.78;;;;;;;;;;5042559;28;20443;-85
2023/04/02 03:37:23;;;;;;;8.40;7.90;;;;;;;;;;5046013;28;20224;-85
2023/04/02 03:40:00;;;;;;;8.48;7.68;;;;;;;;;;5036161;28;20202;-85
2023/04/02 03:42:28;;;;;;;6.87;6.47;;;;;;;;;;5038988;28;20769;-85
2023/04/02 03:44:57;;;;;;;9.10;8.48;;;;;;;;;;5026512;28;20442;-86
2023/04/02 03:47:43;;;;;;;9.37;8.67;;;;;;;;;;5040132;28;20259;-85
2023/04/02 03:50:21;;;;;;;8.65;8.05;;;;;;;;;;5022154;28;20465;-85
2023/04/02 03:52:48;;;;;;;9.13;8.48;;;;;;;;;;5015581;28;20184;-85
2023/04/02 03:55:22;;;;;;;8.83;8.03;;;;;;;;;;5031972;28;20194;-86
2023/04/02 03:57:51;;;;;;;7.10;6.73;;;;;;;;;;5030258;28;20510;-85
2023/04/02 04:00:20;;;;;;;7.80;7.30;;;;;;;;;;5031265;28;20419;-86
2023/04/02 04:02:48;;;;;;;9.00;8.45;;;;;;;;;;5027520;28;20482;-84
2023/04/02 04:05:28;;;;;;;6.65;6.15;;;;;;;;;;5045796;28;20385;-85
2023/04/02 04:07:56;;;;;;;9.10;8.48;;;;;;;;;;5029059;28;20176;-86
2023/04/02 04:10:25;;;;;;;8.85;8.05;;;;;;;;;;5056428;28;20171;-85
2023/04/02 04:12:52;;;;;;;8.70;8.05;;;;;;;;;;5033829;28;20564;-85
2023/04/02 04:15:32;;;;;;;9.30;8.60;;;;;;;;;;5014921;28;20504;-84
2023/04/02 04:18:00;;;;;;;7.50;6.93;;;;;;;;;;5048386;28;20251;-85
2023/04/02 04:20:36;;;;;;;8.48;7.88;;;;;;;;;;5030480;28;20580;-84
2023/04/02 04:23:10;;;;;;;8.55;8.05;;;;;;;;;;5044461;28;20207;-86
2023/04/02 04:25:36;;;;;;;9.73;8.82;;;;;;;;;;5040257;28;20216;-86
2023/04/02 04:28:09;;;;;;;10.60;9.68;;;;;;;;;;5044784;28;20196;-85
2023/04/02 04:30:53;;;;;;;8.48;7.97;;;;;;;;;;5049947;28;20180;-85
2023/04/02 04:33:22;;;;;;;10.35;9.65;;;;;;;;;;5042519;28;20195;-84
2023/04/02 04:35:59;;;;;;;8.88;8.23;;;;;;;;;;5047860;28;20264;-85
2023/04/02 04:38:31;;;;;;;8.10;7.28;;;;;;;;;;5031373;28;20192;-85
2023/04/02 04:41:00;;;;;;;10.40;9.43;;;;;;;;;;5037833;28;20238;-85
2023/04/02 04:43:32;;;;;;;9.35;8.65;;;;;;;;;;5048736;28;20208;-85
2023/04/02 04:46:04;;;;;;;11.07;10.20;;;;;;;;;;5038422;28;20183;-85
2023/04/02 04:48:39;;;;;;;10.18;9.38;;;;;;;;;;5016040;28;20936;-84
2023/04/02 04:51:15;;;;;;;10.02;9.23;;;;;;;;;;5048737;28;20199;-85
2023/04/02 04:53:49;;;;;;;8.40;7.60;;;;;;;;;;5031863;28;20173;-86
2023/04/02 04:56:18;;;;;;;10.55;9.68;;;;;;;;;;5053862;28;20295;-84
2023/04/02 04:58:49;;;;;;;9.43;8.68;;;;;;;;;;5035086;28;20240;-85
2023/04/02 05:01:19;;;;;;;9.55;8.70;;;;;;;;;;5046215;28;20196;-85
2023/04/02 05:03:51;;;;;;;11.25;9.43;;;;;;;;;;5051807;28;20200;-86
2023/04/02 05:06:23;;;;;;;10.75;8.93;;;;;;;;;;5045659;28;20187;-84
2023/04/02 05:08:52;;;;;;;10.48;9.50;;;;;;;;;;5041181;28;20213;-86
2023/04/02 05:11:21;;;;;;;10.73;9.63;;;;;;;;;;5050016;28;20185;-83
2023/04/02 05:13:50;;;;;;;12.73;10.50;;;;;;;;;;5040336;28;20176;-85
2023/04/02 05:16:16;;;;;;;6.82;6.13;;;;;;;;;;5035632;28;20197;-85
2023/04/02 05:18:45;;;;;;;11.57;10.68;;;;;;;;;;5049036;28;20199;-85
2023/04/02 05:21:14;;;;;;;12.00;10.90;;;;;;;;;;5050298;28;20180;-85
2023/04/02 05:23:49;;;;;;;11.25;10.23;;;;;;;;;;5031089;28;20207;-85
2023/04/02 05:26:18;;;;;;;11.38;10.32;;;;;;;;;;5042021;28;20204;-85
2023/04/02 05:28:50;;;;;;;16.60;10.13;;;;;;;;;;5052181;28;20202;-86
2023/04/02 05:31:25;;;;;;;12.60;11.27;;;;;;;;;;5052286;28;20188;-86
2023/04/02 05:33:51;;;;;;;11.43;10.48;;;;;;;;;;5041157;28;20191;-86
2023/04/02 05:36:19;;;;;;;12.65;11.32;;;;;;;;;;5035519;28;20189;-85
2023/04/02 05:38:46;;;;;;;11.60;10.57;;;;;;;;;;5045491;28;20186;-85
2023/04/02 05:41:31;;;;;;;13.77;12.43;;;;;;;;;;5043942;28;20192;-85
2023/04/02 05:44:16;;;;;;;13.88;11.45;;;;;;;;;;5037484;28;20212;-84
2023/04/02 05:46:53;;;;;;;17.20;11.82;;;;;;;;;;5035029;28;20200;-84
2023/04/02 05:49:24;;;;;;;12.63;11.45;;;;;;;;;;5041662;28;20190;-84
2023/04/02 05:54:48;;;;;;;13.90;10.87;;;;;;;;;;5172061;23;20258;-84
2023/04/02 05:57:25;;;;;;;14.35;11.07;;;;;;;;;;5077646;28;20433;-85
2023/04/02 05:59:59;;;;;;;19.05;10.68;;;;;;;;;;5093694;28;20186;-87
2023/04/02 06:02:29;;;;;;;35.70;22.15;;;;;;;;;;5246575;23;20791;-84
2023/04/02 06:05:06;;;;;;;11.70;10.50;;;;;;;;;;5058087;28;20160;-84
2023/04/02 06:07:40;;;;;;;10.05;9.05;;;;;;;;;;5025222;28;20214;-84
2023/04/02 06:12:47;;;;;;;13.15;10.63;;;;;;;;;;5089346;23;20514;-84
2023/04/02 06:15:14;;;;;;;11.82;10.40;;;;;;;;;;5038568;23;20221;-85
2023/04/02 06:17:59;;;;;;;13.63;9.10;;;;;;;;;;5021335;28;20196;-83
2023/04/02 06:20:25;;;;;;;11.38;10.57;;;;;;;;;;5021068;28;20487;-84
2023/04/02 06:22:55;;;;;;;10.43;7.22;;;;;;;;;;5008468;28;20267;-84
2023/04/02 06:25:21;;;;;;;10.02;9.13;;;;;;;;;;5016069;28;20177;-83
2023/04/02 06:27:48;;;;;;;13.48;10.75;;;;;;;;;;5052739;28;20224;-84
2023/04/02 06:32:51;;;;;;;10.98;9.50;;;;;;;;;;5122327;23;20226;-85
2023/04/02 06:35:17;;;;;;;38.38;23.05;;;;;;;;;;5440837;22;20377;-83
2023/04/02 06:40:36;;;;;;;25.02;15.00;;;;;;;;;;5385415;22;20215;-82
2023/04/02 06:43:07;;;;;;;9.55;8.57;;;;;;;;;;5179806;23;20206;-83
2023/04/02 06:48:16;;;;;;;10.43;9.35;;;;;;;;;;4970864;26;20423;-85
2023/04/02 06:50:50;;;;;;;7.40;6.50;;;;;;;;;;5351464;23;20286;-84
2023/04/02 06:58:28;;;;;;;9.23;8.52;;;;;;;;;;5387309;23;20230;-84
2023/04/02 07:08:44;;;;;;;9.35;8.48;;;;;;;;;;5518117;23;20224;-84
2023/04/02 07:11:17;;;;;;;10.52;9.30;;;;;;;;;;5189600;23;20241;-83
2023/04/02 07:26:35;;;;;;;12.50;11.23;;;;;;;;;;5391874;22;20868;-86
2023/04/02 07:34:29;;;;;;;25.47;16.80;;;;;;;;;;3620942;22;21055;-84
2023/04/02 07:37:04;;;;;;;8.80;8.18;;;;;;;;;;5069705;28;20446;-84
2023/04/02 07:47:14;;;;;;;9.85;9.23;;;;;;;;;;5104271;23;20472;-79
2023/04/02 07:49:51;;;;;;;;;;;;;;;;;;;;;
2023/04/02 07:54:53;;;;;;;8.33;7.73;;;;;;;;;;5007655;28;20228;-81
2023/04/02 07:57:19;;;;;;;12.38;9.95;;;;;;;;;;4997674;28;20447;-82
2023/04/02 07:59:46;;;;;;;9.20;8.30;;;;;;;;;;4996260;28;20196;-82
2023/04/02 08:04:47;;;;;;;11.53;9.10;;;;;;;;;;5396362;23;20243;-84
2023/04/02 08:07:19;;;;;;;31.98;21.35;;;;;;;;;;5346517;23;20463;-83
2023/04/02 08:09:45;;;;;;;19.63;14.75;;;;;;;;;;5807584;23;20231;-85
2023/04/02 08:12:15;;;;;;;10.63;9.73;;;;;;;;;;5051254;28;20179;-85
2023/04/02 08:14:41;;;;;;;12.95;11.80;;;;;;;;;;5051806;28;20920;-84
2023/04/02 08:17:07;;;;;;;10.50;8.55;;;;;;;;;;5056619;28;20183;-84
2023/04/02 08:19:33;;;;;;;12.05;10.35;;;;;;;;;;5051276;28;20191;-84
2023/04/02 08:21:59;;;;;;;10.35;9.27;;;;;;;;;;5057576;28;20179;-84
2023/04/02 08:24:26;;;;;;;9.20;8.50;;;;;;;;;;5051311;28;20215;-83
2023/04/02 08:26:53;;;;;;;7.90;7.20;;;;;;;;;;5052631;28;20192;-85
2023/04/02 08:29:19;;;;;;;10.20;9.50;;;;;;;;;;5067166;28;20243;-83
2023/04/02 08:31:48;;;;;;;9.48;8.25;;;;;;;;;;5055849;28;20174;-83
2023/04/02 08:34:14;;;;;;;11.30;10.40;;;;;;;;;;5047821;28;20188;-84
2023/04/02 08:36:41;;;;;;;10.37;9.67;;;;;;;;;;5065790;28;20447;-83
2023/04/02 08:39:11;;;;;;;10.25;9.55;;;;;;;;;;5048158;28;20433;-83
2023/04/02 08:41:41;;;;;;;8.93;8.40;;;;;;;;;;5057630;28;20464;-84
2023/04/02 08:44:07;;;;;;;12.30;11.13;;;;;;;;;;5048577;28;20199;-84
2023/04/02 08:46:45;;;;;;;11.73;8.43;;;;;;;;;;5046519;28;20214;-85
2023/04/02 08:49:13;;;;;;;9.60;8.98;;;;;;;;;;5044324;28;20642;-83
2023/04/02 08:51:39;;;;;;;11.80;10.73;;;;;;;;;;5048762;28;20194;-85
2023/04/02 08:54:16;;;;;;;11.30;9.80;;;;;;;;;;5053612;28;20184;-84
2023/04/02 08:57:02;;;;;;;9.55;8.75;;;;;;;;;;5050555;28;20478;-84
2023/04/02 08:59:31;;;;;;;14.20;12.93;;;;;;;;;;5040281;28;20211;-84
2023/04/02 09:02:16;;;;;;;10.25;9.23;;;;;;;;;;5053780;28;21016;-83
2023/04/02 09:04:42;;;;;;;9.43;8.73;;;;;;;;;;5045426;28;20696;-85
2023/04/02 09:07:13;;;;;;;10.67;9.70;;;;;;;;;;5061972;28;20442;-85
2023/04/02 09:09:39;;;;;;;10.35;9.65;;;;;;;;;;5045907;28;20473;-84
2023/04/02 09:12:06;;;;;;;7.30;6.88;;;;;;;;;;5056272;28;20199;-85
2023/04/02 09:14:53;;;;;;;10.15;9.48;;;;;;;;;;5057314;28;20192;-85
2023/04/02 09:17:23;;;;;;;7.80;7.25;;;;;;;;;;5056081;28;20195;-83
2023/04/02 09:19:53;;;;;;;8.50;7.77;;;;;;;;;;5049065;28;20195;-84
2023/04/02 09:22:26;;;;;;;8.85;7.93;;;;;;;;;;5039331;28;20918;-85
2023/04/02 09:24:54;;;;;;;8.50;7.70;;;;;;;;;;5059930;28;20314;-84
2023/04/02 09:27:22;;;;;;;11.10;10.03;;;;;;;;;;5058111;28;20425;-84
2023/04/02 09:29:51;;;;;;;7.10;6.50;;;;;;;;;;5061138;28;20426;-82
2023/04/02 09:32:35;;;;;;;6.93;6.67;;;;;;;;;;5047235;28;20195;-84
2023/04/02 09:35:11;;;;;;;7.30;6.90;;;;;;;;;;5055639;28;20425;-85
2023/04/02 09:37:38;;;;;;;8.30;7.73;;;;;;;;;;5061329;28;20422;-84
2023/04/02 09:40:19;;;;;;;6.30;5.97;;;;;;;;;;5065846;28;20453;-84
2023/04/02 09:42:45;;;;;;;7.07;6.73;;;;;;;;;;5053755;28;20204;-82
2023/04/02 09:45:21;;;;;;;7.53;6.93;;;;;;;;;;5048617;28;20434;-80
2023/04/02 09:47:47;;;;;;;6.53;6.20;;;;;;;;;;5068625;28;20449;-82
2023/04/02 09:50:42;;;;;;;5.80;5.40;;;;;;;;;;5049323;28;20192;-85
2023/04/02 09:53:27;;;;;;;5.95;5.72;;;;;;;;;;5037006;28;20434;-83
2023/04/02 09:56:26;;;;;;;6.80;6.40;;;;;;;;;;5048166;28;20191;-84
2023/04/02 09:59:11;;;;;;;7.40;6.30;;;;;;;;;;5022328;28;20196;-86
2023/04/02 10:01:38;;;;;;;6.57;6.00;;;;;;;;;;5055721;28;20454;-83
2023/04/02 10:04:05;;;;;;;7.03;6.57;;;;;;;;;;5056980;28;20639;-85
2023/04/02 10:06:32;;;;;;;5.77;5.47;;;;;;;;;;5064309;28;20446;-85
2023/04/02 10:09:19;;;;;;;5.73;5.43;;;;;;;;;;5043446;28;20439;-84
2023/04/02 10:11:48;;;;;;;5.40;5.10;;;;;;;;;;5060377;28;20470;-85
2023/04/02 10:14:19;;;;;;;5.33;5.00;;;;;;;;;;5070686;28;20421;-82
2023/04/02 10:16:49;;;;;;;4.55;4.45;;;;;;;;;;5054952;28;20438;-84
2023/04/02 10:19:15;;;;;;;5.80;5.60;;;;;;;;;;5067996;28;20202;-82
2023/04/02 10:21:42;;;;;;;6.30;5.80;;;;;;;;;;5054820;28;20196;-85
2023/04/02 10:24:15;;;;;;;5.38;5.07;;;;;;;;;;5059925;28;20547;-84
2023/04/02 10:27:01;;;;;;;6.43;6.03;;;;;;;;;;5167342;23;20282;-84
2023/04/02 10:29:39;;;;;;;19.30;16.03;;;;;;;;;;5199538;23;20671;-82
2023/04/02 10:32:18;;;;;;;7.07;6.67;;;;;;;;;;5241770;23;20490;-82
2023/04/02 10:35:11;;;;;;;4.23;4.03;;;;;;;;;;5038185;28;20415;-82
2023/04/02 10:37:48;;;;;;;7.23;6.60;;;;;;;;;;5107279;23;20468;-83
2023/04/02 10:40:23;;;;;;;6.90;6.43;;;;;;;;;;5253321;23;20497;-85
2023/04/02 10:45:41;;;;;;;5.73;5.23;;;;;;;;;;5285162;23;20461;-85
2023/04/02 10:48:17;;;;;;;34.70;30.80;;;;;;;;;;5302739;23;21966;-84
2023/04/02 10:53:20;;;;;;;6.33;5.93;;;;;;;;;;4469970;23;20472;-84
2023/04/02 10:55:55;;;;;;;5.90;5.50;;;;;;;;;;5021165;28;20439;-86
2023/04/02 10:58:23;;;;;;;6.00;5.43;;;;;;;;;;5006410;28;20211;-83
2023/04/02 11:00:50;;;;;;;5.60;5.40;;;;;;;;;;5018154;28;20539;-85
2023/04/02 11:03:22;;;;;;;5.40;5.20;;;;;;;;;;5015093;28;20188;-83
2023/04/02 11:05:50;;;;;;;5.78;5.47;;;;;;;;;;5016757;28;20181;-85
2023/04/02 11:08:23;;;;;;;6.25;5.78;;;;;;;;;;5030178;28;20191;-84
2023/04/02 11:10:55;;;;;;;4.20;3.93;;;;;;;;;;5025241;28;20177;-85
2023/04/02 11:13:47;;;;;;;5.67;5.27;;;;;;;;;;5012435;28;20503;-84
2023/04/02 11:16:19;;;;;;;33.55;25.48;;;;;;;;;;5086974;23;20451;-85
2023/04/02 11:19:04;;;;;;;5.13;4.93;;;;;;;;;;5050470;28;20672;-84
2023/04/02 11:21:38;;;;;;;5.43;5.20;;;;;;;;;;5039826;28;20488;-84
2023/04/02 11:24:04;;;;;;;5.60;5.18;;;;;;;;;;5044326;28;21002;-84
2023/04/02 11:26:37;;;;;;;4.37;4.27;;;;;;;;;;5031248;28;20204;-82
2023/04/02 11:29:15;;;;;;;4.93;4.75;;;;;;;;;;5031976;28;20469;-83
2023/04/02 11:31:42;;;;;;;7.70;7.17;;;;;;;;;;5018224;28;20222;-83
2023/04/02 11:34:34;;;;;;;5.53;5.27;;;;;;;;;;5018687;28;20437;-82
2023/04/02 11:37:01;;;;;;;19.87;18.30;;;;;;;;;;5020748;28;20463;-85
2023/04/02 11:39:48;;;;;;;6.93;6.53;;;;;;;;;;5022834;28;20707;-84
2023/04/02 11:42:23;;;;;;;5.50;5.20;;;;;;;;;;5046434;28;20441;-84
2023/04/02 11:45:12;;;;;;;6.40;6.10;;;;;;;;;;5027038;28;20493;-83
2023/04/02 11:47:41;;;;;;;5.03;4.73;;;;;;;;;;4986056;28;20458;-84
2023/04/02 11:50:27;;;;;;;8.30;7.80;;;;;;;;;;5025156;28;20438;-81
2023/04/02 11:52:53;;;;;;;4.90;4.80;;;;;;;;;;5027803;28;20489;-83
2023/04/02 11:55:21;;;;;;;5.33;5.23;;;;;;;;;;5024551;28;20483;-80
2023/04/02 11:57:55;;;;;;;4.43;4.33;;;;;;;;;;5021456;28;20442;-81
2023/04/02 12:00:26;;;;;;;5.80;5.40;;;;;;;;;;5015909;28;20430;-81
2023/04/02 12:03:15;;;;;;;5.30;5.10;;;;;;;;;;5020816;28;20468;-83
2023/04/02 12:05:50;;;;;;;6.23;6.03;;;;;;;;;;5020552;28;20458;-84
2023/04/02 12:08:24;;;;;;;5.57;5.00;;;;;;;;;;5033596;28;21232;-82
2023/04/02 12:10:55;;;;;;;6.03;5.83;;;;;;;;;;5011740;28;20454;-75
2023/04/02 12:13:41;;;;;;;7.23;6.73;;;;;;;;;;5015929;28;20454;-79
2023/04/02 12:16:10;;;;;;;5.10;4.80;;;;;;;;;;5017545;28;20861;-75
2023/04/02 12:18:43;;;;;;;4.75;4.65;;;;;;;;;;5034799;28;20453;-81
2023/04/02 12:21:16;;;;;;;4.07;3.97;;;;;;;;;;5011517;28;20180;-82
2023/04/02 12:23:46;;;;;;;10.80;9.77;;;;;;;;;;5039463;28;20478;-82
2023/04/02 12:26:28;;;;;;;4.77;4.57;;;;;;;;;;5047019;28;20400;-84
2023/04/02 12:28:57;;;;;;;11.80;10.70;;;;;;;;;;5038397;28;20502;-86
2023/04/02 12:31:26;;;;;;;4.57;4.43;;;;;;;;;;5039444;28;20455;-86
2023/04/02 12:33:55;;;;;;;6.30;6.00;;;;;;;;;;5027651;28;20836;-85
2023/04/02 12:36:27;;;;;;;3.90;3.80;;;;;;;;;;5191878;23;20571;-83
2023/04/02 12:38:55;;;;;;;4.20;4.00;;;;;;;;;;5029147;28;20407;-82
2023/04/02 12:41:47;;;;;;;42.00;23.40;;;;;;;;;;5176487;23;20711;-83
2023/04/02 12:44:28;;;;;;;;;;;;;;;;;;;;;
2023/04/02 12:50:12;;;;;;;5.90;5.57;;;;;;;;;;5071019;28;20423;-84
2023/04/02 12:55:21;;;;;;;16.37;11.57;;;;;;;;;;5183273;23;20507;-86
2023/04/02 12:57:48;;;;;;;4.53;4.43;;;;;;;;;;4998896;28;20452;-82
2023/04/02 13:03:25;;;;;;;14.57;10.53;;;;;;;;;;5208435;23;20202;-80
2023/04/02 13:08:44;;;;;;;4.40;4.07;;;;;;;;;;5210187;23;20511;-84
2023/04/02 13:11:10;;;;;;;3.83;3.83;;;;;;;;;;5075521;28;20429;-83
2023/04/02 13:13:38;;;;;;;5.47;5.17;;;;;;;;;;5235955;23;20558;-86
2023/04/02 13:16:27;;;;;;;3.90;3.80;;;;;;;;;;5023592;28;20463;-81
2023/04/02 13:19:12;;;;;;;4.30;4.20;;;;;;;;;;5004011;28;20514;-86
2023/04/02 13:21:38;;;;;;;11.17;8.20;;;;;;;;;;5500871;23;20458;-82
2023/04/02 13:26:42;;;;;;;5.80;5.50;;;;;;;;;;4707361;23;20475;-84
2023/04/02 13:31:40;;;;;;;5.23;4.77;;;;;;;;;;5530440;23;20477;-83
2023/04/02 13:34:06;;;;;;;4.97;4.80;;;;;;;;;;5051013;28;20534;-76
2023/04/02 13:36:36;;;;;;;4.90;4.70;;;;;;;;;;5033001;28;20426;-81
2023/04/02 13:41:42;;;;;;;5.07;4.90;;;;;;;;;;5245118;23;20283;-82
2023/04/02 13:44:17;;;;;;;36.60;21.60;;;;;;;;;;5042342;23;20487;-82
2023/04/02 13:46:43;;;;;;;4.50;3.47;;;;;;;;;;5216248;23;20475;-85
2023/04/02 13:49:10;;;;;;;3.57;3.57;;;;;;;;;;5030690;28;20542;-83
2023/04/02 13:51:38;;;;;;;4.30;4.20;;;;;;;;;;5007837;28;20451;-82
2023/04/02 13:54:07;;;;;;;4.07;3.93;;;;;;;;;;5022532;28;20515;-84
2023/04/02 13:56:33;;;;;;;4.47;4.47;;;;;;;;;;5026605;28;20517;-85
2023/04/02 13:58:59;;;;;;;3.87;3.77;;;;;;;;;;5020042;28;20436;-83
2023/04/02 14:01:26;;;;;;;4.50;4.27;;;;;;;;;;5008431;28;20463;-79
2023/04/02 14:03:52;;;;;;;4.57;4.30;;;;;;;;;;5001534;28;20531;-77
2023/04/02 14:06:41;;;;;;;3.43;3.17;;;;;;;;;;5009548;28;20490;-84
2023/04/02 14:09:24;;;;;;;3.00;2.90;;;;;;;;;;5028496;28;20420;-86
2023/04/02 14:11:51;;;;;;;6.13;5.60;;;;;;;;;;5021402;28;20456;-86
2023/04/02 14:14:26;;;;;;;3.40;3.20;;;;;;;;;;5032340;28;20471;-83
2023/04/02 14:17:11;;;;;;;3.30;3.20;;;;;;;;;;5030060;28;20445;-84
2023/04/02 14:19:55;;;;;;;3.83;3.60;;;;;;;;;;5190800;23;20497;-86
2023/04/02 14:22:35;;;;;;;2.43;2.43;;;;;;;;;;5071005;28;20441;-84
2023/04/02 14:33:17;;;;;;;8.70;3.10;;;;;;;;;;5093155;28;20456;-84
2023/04/02 14:35:45;;;;;;;3.50;3.30;;;;;;;;;;5054224;28;20432;-86
2023/04/02 14:38:21;;;;;;;5.60;5.07;;;;;;;;;;5104445;28;20428;-86
2023/04/02 14:43:25;;;;;;;2.87;2.77;;;;;;;;;;3838300;23;20471;-84
2023/04/02 14:45:52;;;;;;;3.00;3.00;;;;;;;;;;5038570;28;20494;-84
2023/04/02 14:51:20;;;;;;;2.43;2.43;;;;;;;;;;5072635;23;20507;-94
2023/04/02 14:53:50;;;;;;;3.17;2.97;;;;;;;;;;5148694;23;20496;-85
2023/04/02 14:56:18;;;;;;;28.47;15.60;;;;;;;;;;5043206;23;20486;-85
2023/04/02 14:58:47;;;;;;;2.17;2.17;;;;;;;;;;5100268;23;20484;-86
2023/04/02 15:01:34;;;;;;;4.40;3.20;;;;;;;;;;5398673;23;20448;-91
2023/04/02 15:04:05;;;;;;;3.13;2.90;;;;;;;;;;5093711;28;20445;-93
2023/04/02 15:06:41;;;;;;;3.73;3.43;;;;;;;;;;5105183;28;20426;-92
2023/04/02 15:09:12;;;;;;;5.60;5.20;;;;;;;;;;5086143;28;20474;-92
2023/04/02 15:11:41;;;;;;;4.27;4.17;;;;;;;;;;5088330;28;20467;-92
2023/04/02 15:14:08;;;;;;;4.07;3.83;;;;;;;;;;5113077;28;20455;-91
2023/04/02 15:16:35;;;;;;;3.90;3.70;;;;;;;;;;5084993;28;20477;-92
2023/04/02 15:19:01;;;;;;;3.37;3.20;;;;;;;;;;5097516;28;20959;-93
2023/04/02 15:21:42;;;;;;;3.83;3.63;;;;;;;;;;5088190;28;20423;-92
2023/04/02 15:24:14;;;;;;;4.20;4.00;;;;;;;;;;5067593;28;20428;-92
2023/04/02 15:26:58;;;;;;;3.83;3.70;;;;;;;;;;5097366;28;20500;-93
2023/04/02 15:29:51;;;;;;;3.87;3.60;;;;;;;;;;5082381;28;20507;-92
2023/04/02 15:32:53;;;;;;;4.30;4.10;;;;;;;;;;5088765;28;20428;-90
2023/04/02 15:35:38;;;;;;;3.20;3.03;;;;;;;;;;5069031;28;20455;-93
2023/04/02 15:40:44;;;;;;;5.40;4.30;;;;;;;;;;5061664;28;20469;-84
2023/04/02 15:43:18;;;;;;;5.17;3.67;;;;;;;;;;5065277;28;20527;-87
2023/04/02 15:51:18;;;;;;;3.13;3.03;;;;;;;;;;5039339;28;20494;-84
2023/04/02 15:53:47;;;;;;;3.70;3.50;;;;;;;;;;5037341;28;20533;-85
2023/04/02 15:56:20;;;;;;;2.83;2.60;;;;;;;;;;5030089;28;20445;-81
2023/04/02 15:58:46;;;;;;;4.23;4.03;;;;;;;;;;5012793;28;20435;-84
2023/04/02 16:01:36;;;;;;;3.73;3.53;;;;;;;;;;5058223;23;20493;-90
2023/04/02 16:04:21;;;;;;;3.27;3.07;;;;;;;;;;5058830;28;20508;-91
2023/04/02 16:07:14;;;;;;;3.30;3.00;;;;;;;;;;5056742;28;20426;-92
2023/04/02 16:10:02;;;;;;;7.47;5.53;;;;;;;;;;5049897;28;20461;-94
2023/04/02 16:13:02;;;;;;;2.63;2.63;;;;;;;;;;5052539;28;20525;-93
2023/04/02 16:15:46;;;;;;;7.53;6.40;;;;;;;;;;4965689;28;20433;-92
2023/04/02 16:18:31;;;;;;;1.90;1.90;;;;;;;;;;5050522;28;20425;-92
2023/04/02 16:21:02;;;;;;;3.27;3.07;;;;;;;;;;5055796;28;20438;-92
2023/04/02 16:23:36;;;;;;;3.33;3.23;;;;;;;;;;5061763;28;20424;-91
2023/04/02 16:26:16;;;;;;;4.27;4.07;;;;;;;;;;5055314;28;20431;-91
2023/04/02 16:28:48;;;;;;;6.40;5.80;;;;;;;;;;5074995;23;21009;-75
2023/04/02 16:31:17;;;;;;;3.43;3.33;;;;;;;;;;5015189;28;20415;-77
2023/04/02 16:33:52;;;;;;;4.00;3.80;;;;;;;;;;5013825;28;20560;-77
2023/04/02 16:36:21;;;;;;;4.80;4.70;;;;;;;;;;5021764;28;20407;-77
2023/04/02 16:38:47;;;;;;;2.93;2.87;;;;;;;;;;5010441;28;20485;-76
2023/04/02 16:41:13;;;;;;;3.10;3.00;;;;;;;;;;5002315;28;20418;-76
2023/04/02 16:43:47;;;;;;;5.50;5.30;;;;;;;;;;5000494;28;20496;-76
2023/04/02 16:46:28;;;;;;;3.23;3.03;;;;;;;;;;5011163;28;20515;-76
2023/04/02 16:48:59;;;;;;;3.30;3.20;;;;;;;;;;5013604;28;20484;-77
2023/04/02 16:51:39;;;;;;;2.80;2.70;;;;;;;;;;5025799;28;20856;-77
2023/04/02 16:54:10;;;;;;;3.63;3.43;;;;;;;;;;5011796;28;20476;-76
2023/04/02 16:56:55;;;;;;;4.20;4.10;;;;;;;;;;5006008;28;20426;-77